Cuivre River (Missouri), Troy (05514500)

StateMissouriLatestPoor (79 cfs)
RiverCuivre RiverRatingObservedEstimated
Updated2020-07-13 17:30 (28 minutes ago)Flood - The river is flooding. Obstacles can be treacherous or deadly. The river should be avoided at this stage for casual trips and definitely for the inexperienced. Trips should be attempted only with protective gear and equipment.Flood(none)2644
Discharge79 cfs (median: 70 cfs)High - The river is high and potentially dangerous, especially for the young and / or inexperienced. Normal stream obstacles are sometimes difficult to navigate. Extended distances can be attempted, but canoe travel may not be advisable.High(none)675
Height5.76 feetGood - Conditions are ideal for a canoe or kayak. Boats typically will drag on fewer than one-quarter of riffles, if at all, and portages are unnecessary or rare. Normal float lengths can be attempted without a problem.Good(none)205
TrendFalling (falling over 24 hours)Low - River is low but can still be floated. Some riffles are okay but most come with significant dragging and might need a portage. Float lengths should be reduced to accommodate low flow, dragging, and portages.Low(none)129
USGSExternal icon USGS Site (External icon Google Maps)Poor - River is too low to float comfortably. Most or all riffles will drag or must be portaged and some obstacles (such as slick shelf rock) cause undue problems. Avoid the river at this stage for casual paddling trips.Poor(none)31

Trending Data

Plot Image

Trips for Cuivre River (Missouri), Troy (05514500)

DateStartEndDistanceConditionDischargeHeightFishingDetails

A total of 0 rows are displayed.

Condition Descriptions

Fishing Conditions

Fish Species

Notes

Classic Trip List

The classic River Trips application is still available for use. It is updated with the new system using a data retrofit. It is no longer maintained. The original River Trips application is no longer updated (as of 1 Dec 2016) but can be checked for errors or for the condition of the data before it was converted to the new system.

Gauge Data Table

ObservationHeightDischargeMaximum
Discharge
Minimum
Discharge
Mean
Discharge
P05P10P20P25P50
(Median)
P75P80P90P95
2020-07-13 17:30 5.76 79 4160 (1935) 0 (1934) 291 6 7 14 20 70 309 397 918 1440
2020-07-13 17:00 5.77 81 4160 (1935) 0 (1934) 291 6 7 14 20 70 309 397 918 1440
2020-07-13 16:30 5.77 81 4160 (1935) 0 (1934) 291 6 7 14 20 70 309 397 918 1440
2020-07-13 16:00 5.77 81 4160 (1935) 0 (1934) 291 6 7 14 20 70 309 397 918 1440
2020-07-13 15:30 5.76 79 4160 (1935) 0 (1934) 291 6 7 14 20 70 309 397 918 1440
2020-07-13 15:00 5.78 82 4160 (1935) 0 (1934) 291 6 7 14 20 70 309 397 918 1440
2020-07-13 14:30 5.78 82 4160 (1935) 0 (1934) 291 6 7 14 20 70 309 397 918 1440
2020-07-13 14:00 5.77 81 4160 (1935) 0 (1934) 291 6 7 14 20 70 309 397 918 1440
2020-07-13 13:30 5.75 78 4160 (1935) 0 (1934) 291 6 7 14 20 70 309 397 918 1440
2020-07-13 13:00 5.77 81 4160 (1935) 0 (1934) 291 6 7 14 20 70 309 397 918 1440
2020-07-13 12:30 5.78 82 4160 (1935) 0 (1934) 291 6 7 14 20 70 309 397 918 1440
2020-07-13 12:00 5.72 73 4160 (1935) 0 (1934) 291 6 7 14 20 70 309 397 918 1440
2020-07-13 11:30 5.71 72 4160 (1935) 0 (1934) 291 6 7 14 20 70 309 397 918 1440
2020-07-13 11:00 5.71 72 4160 (1935) 0 (1934) 291 6 7 14 20 70 309 397 918 1440
2020-07-13 10:30 5.77 81 4160 (1935) 0 (1934) 291 6 7 14 20 70 309 397 918 1440
2020-07-13 10:00 5.77 81 4160 (1935) 0 (1934) 291 6 7 14 20 70 309 397 918 1440
2020-07-13 09:30 5.77 81 4160 (1935) 0 (1934) 291 6 7 14 20 70 309 397 918 1440
2020-07-13 09:00 5.77 81 4160 (1935) 0 (1934) 291 6 7 14 20 70 309 397 918 1440
2020-07-13 08:30 5.73 75 4160 (1935) 0 (1934) 291 6 7 14 20 70 309 397 918 1440
2020-07-13 08:00 5.78 82 4160 (1935) 0 (1934) 291 6 7 14 20 70 309 397 918 1440
2020-07-13 07:30 5.78 82 4160 (1935) 0 (1934) 291 6 7 14 20 70 309 397 918 1440
2020-07-13 07:00 5.79 84 4160 (1935) 0 (1934) 291 6 7 14 20 70 309 397 918 1440
2020-07-13 06:30 5.78 82 4160 (1935) 0 (1934) 291 6 7 14 20 70 309 397 918 1440
2020-07-13 06:00 5.79 84 4160 (1935) 0 (1934) 291 6 7 14 20 70 309 397 918 1440
2020-07-13 05:30 5.79 84 4160 (1935) 0 (1934) 291 6 7 14 20 70 309 397 918 1440
2020-07-13 05:00 5.79 84 4160 (1935) 0 (1934) 291 6 7 14 20 70 309 397 918 1440
2020-07-13 04:30 5.79 84 4160 (1935) 0 (1934) 291 6 7 14 20 70 309 397 918 1440
2020-07-13 04:00 5.79 84 4160 (1935) 0 (1934) 291 6 7 14 20 70 309 397 918 1440
2020-07-13 03:30 5.79 84 4160 (1935) 0 (1934) 291 6 7 14 20 70 309 397 918 1440
2020-07-13 03:00 5.80 86 4160 (1935) 0 (1934) 291 6 7 14 20 70 309 397 918 1440
2020-07-13 02:30 5.79 84 4160 (1935) 0 (1934) 291 6 7 14 20 70 309 397 918 1440
2020-07-13 02:00 5.80 86 4160 (1935) 0 (1934) 291 6 7 14 20 70 309 397 918 1440
2020-07-13 01:30 5.80 86 4160 (1935) 0 (1934) 291 6 7 14 20 70 309 397 918 1440
2020-07-13 01:00 5.80 86 4160 (1935) 0 (1934) 291 6 7 14 20 70 309 397 918 1440
2020-07-13 00:30 5.80 86 4160 (1935) 0 (1934) 291 6 7 14 20 70 309 397 918 1440
2020-07-13 00:00 5.80 86 4160 (1935) 0 (1934) 291 6 7 14 20 70 309 397 918 1440
2020-07-12 23:30 5.81 87 12300 (1991) 0 (1934) 484 5 7 15 24 77 298 478 950 2860
2020-07-12 23:00 5.81 87 12300 (1991) 0 (1934) 484 5 7 15 24 77 298 478 950 2860
2020-07-12 22:30 5.81 87 12300 (1991) 0 (1934) 484 5 7 15 24 77 298 478 950 2860
2020-07-12 22:00 5.81 87 12300 (1991) 0 (1934) 484 5 7 15 24 77 298 478 950 2860
2020-07-12 21:30 5.81 87 12300 (1991) 0 (1934) 484 5 7 15 24 77 298 478 950 2860
2020-07-12 21:00 5.81 87 12300 (1991) 0 (1934) 484 5 7 15 24 77 298 478 950 2860
2020-07-12 20:30 5.81 87 12300 (1991) 0 (1934) 484 5 7 15 24 77 298 478 950 2860
2020-07-12 20:00 5.82 89 12300 (1991) 0 (1934) 484 5 7 15 24 77 298 478 950 2860
2020-07-12 19:30 5.82 89 12300 (1991) 0 (1934) 484 5 7 15 24 77 298 478 950 2860
2020-07-12 19:00 5.82 89 12300 (1991) 0 (1934) 484 5 7 15 24 77 298 478 950 2860
2020-07-12 18:30 5.83 91 12300 (1991) 0 (1934) 484 5 7 15 24 77 298 478 950 2860
2020-07-12 18:00 5.83 91 12300 (1991) 0 (1934) 484 5 7 15 24 77 298 478 950 2860
2020-07-12 17:30 5.79 84 12300 (1991) 0 (1934) 484 5 7 15 24 77 298 478 950 2860
2020-07-12 17:00 5.84 92 12300 (1991) 0 (1934) 484 5 7 15 24 77 298 478 950 2860
2020-07-12 16:30 5.84 92 12300 (1991) 0 (1934) 484 5 7 15 24 77 298 478 950 2860
2020-07-12 16:00 5.84 92 12300 (1991) 0 (1934) 484 5 7 15 24 77 298 478 950 2860
2020-07-12 15:30 5.85 94 12300 (1991) 0 (1934) 484 5 7 15 24 77 298 478 950 2860
2020-07-12 15:00 5.85 94 12300 (1991) 0 (1934) 484 5 7 15 24 77 298 478 950 2860
2020-07-12 14:30 5.85 94 12300 (1991) 0 (1934) 484 5 7 15 24 77 298 478 950 2860
2020-07-12 14:00 5.85 94 12300 (1991) 0 (1934) 484 5 7 15 24 77 298 478 950 2860
2020-07-12 13:30 5.83 91 12300 (1991) 0 (1934) 484 5 7 15 24 77 298 478 950 2860
2020-07-12 13:00 5.86 96 12300 (1991) 0 (1934) 484 5 7 15 24 77 298 478 950 2860
2020-07-12 12:30 5.85 94 12300 (1991) 0 (1934) 484 5 7 15 24 77 298 478 950 2860
2020-07-12 12:00 5.85 94 12300 (1991) 0 (1934) 484 5 7 15 24 77 298 478 950 2860
2020-07-12 11:30 5.85 94 12300 (1991) 0 (1934) 484 5 7 15 24 77 298 478 950 2860
2020-07-12 11:00 5.85 94 12300 (1991) 0 (1934) 484 5 7 15 24 77 298 478 950 2860
2020-07-12 10:30 5.81 87 12300 (1991) 0 (1934) 484 5 7 15 24 77 298 478 950 2860
2020-07-12 10:00 5.82 89 12300 (1991) 0 (1934) 484 5 7 15 24 77 298 478 950 2860
2020-07-12 09:30 5.83 91 12300 (1991) 0 (1934) 484 5 7 15 24 77 298 478 950 2860
2020-07-12 09:00 5.79 84 12300 (1991) 0 (1934) 484 5 7 15 24 77 298 478 950 2860
2020-07-12 08:30 5.84 92 12300 (1991) 0 (1934) 484 5 7 15 24 77 298 478 950 2860
2020-07-12 08:00 5.83 91 12300 (1991) 0 (1934) 484 5 7 15 24 77 298 478 950 2860
2020-07-12 07:30 5.87 98 12300 (1991) 0 (1934) 484 5 7 15 24 77 298 478 950 2860
2020-07-12 07:00 5.87 98 12300 (1991) 0 (1934) 484 5 7 15 24 77 298 478 950 2860
2020-07-12 06:30 5.87 98 12300 (1991) 0 (1934) 484 5 7 15 24 77 298 478 950 2860
2020-07-12 06:00 5.87 98 12300 (1991) 0 (1934) 484 5 7 15 24 77 298 478 950 2860
2020-07-12 05:30 5.87 98 12300 (1991) 0 (1934) 484 5 7 15 24 77 298 478 950 2860
2020-07-12 05:00 5.88 99 12300 (1991) 0 (1934) 484 5 7 15 24 77 298 478 950 2860
2020-07-12 04:30 5.88 99 12300 (1991) 0 (1934) 484 5 7 15 24 77 298 478 950 2860
2020-07-12 04:00 5.88 99 12300 (1991) 0 (1934) 484 5 7 15 24 77 298 478 950 2860
2020-07-12 03:30 5.88 99 12300 (1991) 0 (1934) 484 5 7 15 24 77 298 478 950 2860
2020-07-12 03:00 5.88 99 12300 (1991) 0 (1934) 484 5 7 15 24 77 298 478 950 2860
2020-07-12 02:30 5.88 99 12300 (1991) 0 (1934) 484 5 7 15 24 77 298 478 950 2860
2020-07-12 02:00 5.88 99 12300 (1991) 0 (1934) 484 5 7 15 24 77 298 478 950 2860
2020-07-12 01:30 5.89 101 12300 (1991) 0 (1934) 484 5 7 15 24 77 298 478 950 2860
2020-07-12 01:00 5.89 101 12300 (1991) 0 (1934) 484 5 7 15 24 77 298 478 950 2860
2020-07-12 00:30 5.89 101 12300 (1991) 0 (1934) 484 5 7 15 24 77 298 478 950 2860
2020-07-12 00:00 5.89 101 12300 (1991) 0 (1934) 484 5 7 15 24 77 298 478 950 2860
2020-07-11 23:30 5.88 99 25000 (1991) 1 (1934) 799 5 8 16 22 70 229 371 1310 2480
2020-07-11 23:00 5.90 103 25000 (1991) 1 (1934) 799 5 8 16 22 70 229 371 1310 2480
2020-07-11 22:30 5.90 103 25000 (1991) 1 (1934) 799 5 8 16 22 70 229 371 1310 2480
2020-07-11 22:00 5.90 103 25000 (1991) 1 (1934) 799 5 8 16 22 70 229 371 1310 2480
2020-07-11 21:30 5.90 103 25000 (1991) 1 (1934) 799 5 8 16 22 70 229 371 1310 2480
2020-07-11 21:00 5.90 103 25000 (1991) 1 (1934) 799 5 8 16 22 70 229 371 1310 2480
2020-07-11 20:30 5.90 103 25000 (1991) 1 (1934) 799 5 8 16 22 70 229 371 1310 2480
2020-07-11 20:00 5.91 105 25000 (1991) 1 (1934) 799 5 8 16 22 70 229 371 1310 2480
2020-07-11 19:30 5.91 105 25000 (1991) 1 (1934) 799 5 8 16 22 70 229 371 1310 2480
2020-07-11 19:00 5.91 105 25000 (1991) 1 (1934) 799 5 8 16 22 70 229 371 1310 2480
2020-07-11 18:30 5.92 107 25000 (1991) 1 (1934) 799 5 8 16 22 70 229 371 1310 2480
2020-07-11 18:00 5.92 107 25000 (1991) 1 (1934) 799 5 8 16 22 70 229 371 1310 2480
2020-07-11 17:30 5.88 99 25000 (1991) 1 (1934) 799 5 8 16 22 70 229 371 1310 2480
2020-07-11 17:00 5.87 98 25000 (1991) 1 (1934) 799 5 8 16 22 70 229 371 1310 2480
2020-07-11 16:30 5.89 101 25000 (1991) 1 (1934) 799 5 8 16 22 70 229 371 1310 2480
2020-07-11 16:00 5.87 98 25000 (1991) 1 (1934) 799 5 8 16 22 70 229 371 1310 2480
2020-07-11 15:30 5.89 101 25000 (1991) 1 (1934) 799 5 8 16 22 70 229 371 1310 2480
2020-07-11 15:00 5.89 101 25000 (1991) 1 (1934) 799 5 8 16 22 70 229 371 1310 2480
2020-07-11 14:30 5.91 105 25000 (1991) 1 (1934) 799 5 8 16 22 70 229 371 1310 2480
2020-07-11 14:00 5.89 101 25000 (1991) 1 (1934) 799 5 8 16 22 70 229 371 1310 2480
2020-07-11 13:30 5.92 107 25000 (1991) 1 (1934) 799 5 8 16 22 70 229 371 1310 2480
2020-07-11 13:00 5.89 101 25000 (1991) 1 (1934) 799 5 8 16 22 70 229 371 1310 2480
2020-07-11 12:30 5.90 103 25000 (1991) 1 (1934) 799 5 8 16 22 70 229 371 1310 2480
2020-07-11 12:00 5.91 105 25000 (1991) 1 (1934) 799 5 8 16 22 70 229 371 1310 2480
2020-07-11 11:30 5.90 103 25000 (1991) 1 (1934) 799 5 8 16 22 70 229 371 1310 2480
2020-07-11 11:00 5.95 113 25000 (1991) 1 (1934) 799 5 8 16 22 70 229 371 1310 2480
2020-07-11 10:30 5.95 113 25000 (1991) 1 (1934) 799 5 8 16 22 70 229 371 1310 2480
2020-07-11 10:00 5.95 113 25000 (1991) 1 (1934) 799 5 8 16 22 70 229 371 1310 2480
2020-07-11 09:30 5.95 113 25000 (1991) 1 (1934) 799 5 8 16 22 70 229 371 1310 2480
2020-07-11 09:00 5.95 113 25000 (1991) 1 (1934) 799 5 8 16 22 70 229 371 1310 2480
2020-07-11 08:30 5.96 115 25000 (1991) 1 (1934) 799 5 8 16 22 70 229 371 1310 2480
2020-07-11 08:00 5.97 117 25000 (1991) 1 (1934) 799 5 8 16 22 70 229 371 1310 2480
2020-07-11 07:30 5.97 117 25000 (1991) 1 (1934) 799 5 8 16 22 70 229 371 1310 2480
2020-07-11 07:00 5.98 119 25000 (1991) 1 (1934) 799 5 8 16 22 70 229 371 1310 2480
2020-07-11 06:30 5.98 119 25000 (1991) 1 (1934) 799 5 8 16 22 70 229 371 1310 2480
2020-07-11 06:00 5.98 119 25000 (1991) 1 (1934) 799 5 8 16 22 70 229 371 1310 2480
2020-07-11 05:30 5.98 119 25000 (1991) 1 (1934) 799 5 8 16 22 70 229 371 1310 2480
2020-07-11 05:00 5.98 119 25000 (1991) 1 (1934) 799 5 8 16 22 70 229 371 1310 2480
2020-07-11 04:30 5.99 121 25000 (1991) 1 (1934) 799 5 8 16 22 70 229 371 1310 2480
2020-07-11 04:00 5.99 121 25000 (1991) 1 (1934) 799 5 8 16 22 70 229 371 1310 2480
2020-07-11 03:30 6.00 123 25000 (1991) 1 (1934) 799 5 8 16 22 70 229 371 1310 2480
2020-07-11 03:00 6.00 123 25000 (1991) 1 (1934) 799 5 8 16 22 70 229 371 1310 2480
2020-07-11 02:30 6.00 123 25000 (1991) 1 (1934) 799 5 8 16 22 70 229 371 1310 2480
2020-07-11 02:00 6.00 123 25000 (1991) 1 (1934) 799 5 8 16 22 70 229 371 1310 2480
2020-07-11 01:30 6.01 125 25000 (1991) 1 (1934) 799 5 8 16 22 70 229 371 1310 2480
2020-07-11 01:00 6.01 125 25000 (1991) 1 (1934) 799 5 8 16 22 70 229 371 1310 2480
2020-07-11 00:30 6.01 125 25000 (1991) 1 (1934) 799 5 8 16 22 70 229 371 1310 2480
2020-07-11 00:00 6.02 127 25000 (1991) 1 (1934) 799 5 8 16 22 70 229 371 1310 2480
2020-07-10 23:30 6.02 127 17400 (1969) 1 (1934) 835 5 9 15 20 68 249 321 1530 4940
2020-07-10 23:00 6.02 127 17400 (1969) 1 (1934) 835 5 9 15 20 68 249 321 1530 4940
2020-07-10 22:30 6.03 129 17400 (1969) 1 (1934) 835 5 9 15 20 68 249 321 1530 4940
2020-07-10 22:00 6.03 129 17400 (1969) 1 (1934) 835 5 9 15 20 68 249 321 1530 4940
2020-07-10 21:30 6.03 129 17400 (1969) 1 (1934) 835 5 9 15 20 68 249 321 1530 4940
2020-07-10 21:00 6.03 129 17400 (1969) 1 (1934) 835 5 9 15 20 68 249 321 1530 4940
2020-07-10 20:30 6.03 129 17400 (1969) 1 (1934) 835 5 9 15 20 68 249 321 1530 4940
2020-07-10 20:00 6.04 132 17400 (1969) 1 (1934) 835 5 9 15 20 68 249 321 1530 4940
2020-07-10 19:30 6.04 132 17400 (1969) 1 (1934) 835 5 9 15 20 68 249 321 1530 4940
2020-07-10 19:00 6.04 132 17400 (1969) 1 (1934) 835 5 9 15 20 68 249 321 1530 4940
2020-07-10 18:30 6.05 134 17400 (1969) 1 (1934) 835 5 9 15 20 68 249 321 1530 4940
2020-07-10 18:00 6.05 134 17400 (1969) 1 (1934) 835 5 9 15 20 68 249 321 1530 4940
2020-07-10 17:30 6.05 134 17400 (1969) 1 (1934) 835 5 9 15 20 68 249 321 1530 4940
2020-07-10 17:00 6.03 129 17400 (1969) 1 (1934) 835 5 9 15 20 68 249 321 1530 4940
2020-07-10 16:30 6.07 138 17400 (1969) 1 (1934) 835 5 9 15 20 68 249 321 1530 4940
2020-07-10 16:00 6.07 138 17400 (1969) 1 (1934) 835 5 9 15 20 68 249 321 1530 4940
2020-07-10 15:30 6.08 141 17400 (1969) 1 (1934) 835 5 9 15 20 68 249 321 1530 4940
2020-07-10 15:00 6.06 136 17400 (1969) 1 (1934) 835 5 9 15 20 68 249 321 1530 4940
2020-07-10 14:30 6.09 143 17400 (1969) 1 (1934) 835 5 9 15 20 68 249 321 1530 4940
2020-07-10 14:00 6.09 143 17400 (1969) 1 (1934) 835 5 9 15 20 68 249 321 1530 4940
2020-07-10 13:30 6.09 143 17400 (1969) 1 (1934) 835 5 9 15 20 68 249 321 1530 4940
2020-07-10 13:00 6.05 134 17400 (1969) 1 (1934) 835 5 9 15 20 68 249 321 1530 4940
2020-07-10 12:30 6.07 138 17400 (1969) 1 (1934) 835 5 9 15 20 68 249 321 1530 4940
2020-07-10 12:00 6.08 141 17400 (1969) 1 (1934) 835 5 9 15 20 68 249 321 1530 4940
2020-07-10 11:30 6.05 134 17400 (1969) 1 (1934) 835 5 9 15 20 68 249 321 1530 4940
2020-07-10 11:00 6.08 141 17400 (1969) 1 (1934) 835 5 9 15 20 68 249 321 1530 4940
2020-07-10 10:30 6.08 141 17400 (1969) 1 (1934) 835 5 9 15 20 68 249 321 1530 4940
2020-07-10 10:00 6.07 138 17400 (1969) 1 (1934) 835 5 9 15 20 68 249 321 1530 4940
2020-07-10 09:30 6.07 138 17400 (1969) 1 (1934) 835 5 9 15 20 68 249 321 1530 4940
2020-07-10 09:00 6.06 136 17400 (1969) 1 (1934) 835 5 9 15 20 68 249 321 1530 4940
2020-07-10 08:30 6.06 136 17400 (1969) 1 (1934) 835 5 9 15 20 68 249 321 1530 4940
2020-07-10 08:00 6.06 17400 (1969) 1 (1934) 835 5 9 15 20 68 249 321 1530 4940
2020-07-10 07:30 6.06 136 17400 (1969) 1 (1934) 835 5 9 15 20 68 249 321 1530 4940
2020-07-10 07:00 6.05 134 17400 (1969) 1 (1934) 835 5 9 15 20 68 249 321 1530 4940
2020-07-10 06:30 6.05 134 17400 (1969) 1 (1934) 835 5 9 15 20 68 249 321 1530 4940
2020-07-10 06:00 6.05 134 17400 (1969) 1 (1934) 835 5 9 15 20 68 249 321 1530 4940
2020-07-10 05:30 6.04 132 17400 (1969) 1 (1934) 835 5 9 15 20 68 249 321 1530 4940
2020-07-10 05:00 6.04 17400 (1969) 1 (1934) 835 5 9 15 20 68 249 321 1530 4940
2020-07-10 04:30 6.04 132 17400 (1969) 1 (1934) 835 5 9 15 20 68 249 321 1530 4940
2020-07-10 04:00 6.04 132 17400 (1969) 1 (1934) 835 5 9 15 20 68 249 321 1530 4940
2020-07-10 03:30 6.03 129 17400 (1969) 1 (1934) 835 5 9 15 20 68 249 321 1530 4940
2020-07-10 03:00 6.04 132 17400 (1969) 1 (1934) 835 5 9 15 20 68 249 321 1530 4940
2020-07-10 02:30 6.05 134 17400 (1969) 1 (1934) 835 5 9 15 20 68 249 321 1530 4940
2020-07-10 02:00 6.05 134 17400 (1969) 1 (1934) 835 5 9 15 20 68 249 321 1530 4940
2020-07-10 01:30 6.05 134 17400 (1969) 1 (1934) 835 5 9 15 20 68 249 321 1530 4940
2020-07-10 01:00 6.06 136 17400 (1969) 1 (1934) 835 5 9 15 20 68 249 321 1530 4940
2020-07-10 00:30 6.06 136 17400 (1969) 1 (1934) 835 5 9 15 20 68 249 321 1530 4940
2020-07-10 00:00 6.03 129 17400 (1969) 1 (1934) 835 5 9 15 20 68 249 321 1530 4940
2020-07-09 23:30 6.03 129 16100 (2015) 0 (1934) 661 5 10 14 19 67 230 297 952 4730
2020-07-09 23:00 6.06 136 16100 (2015) 0 (1934) 661 5 10 14 19 67 230 297 952 4730
2020-07-09 22:30 6.07 138 16100 (2015) 0 (1934) 661 5 10 14 19 67 230 297 952 4730
2020-07-09 22:00 6.07 138 16100 (2015) 0 (1934) 661 5 10 14 19 67 230 297 952 4730
2020-07-09 21:30 6.07 138 16100 (2015) 0 (1934) 661 5 10 14 19 67 230 297 952 4730
2020-07-09 21:00 6.08 141 16100 (2015) 0 (1934) 661 5 10 14 19 67 230 297 952 4730
2020-07-09 20:30 6.08 141 16100 (2015) 0 (1934) 661 5 10 14 19 67 230 297 952 4730
2020-07-09 20:00 6.08 141 16100 (2015) 0 (1934) 661 5 10 14 19 67 230 297 952 4730
2020-07-09 19:30 6.08 141 16100 (2015) 0 (1934) 661 5 10 14 19 67 230 297 952 4730
2020-07-09 19:00 6.09 143 16100 (2015) 0 (1934) 661 5 10 14 19 67 230 297 952 4730
2020-07-09 18:30 6.09 143 16100 (2015) 0 (1934) 661 5 10 14 19 67 230 297 952 4730
2020-07-09 18:00 6.10 146 16100 (2015) 0 (1934) 661 5 10 14 19 67 230 297 952 4730
2020-07-09 17:30 6.10 146 16100 (2015) 0 (1934) 661 5 10 14 19 67 230 297 952 4730
2020-07-09 17:00 6.11 148 16100 (2015) 0 (1934) 661 5 10 14 19 67 230 297 952 4730
2020-07-09 16:30 6.11 148 16100 (2015) 0 (1934) 661 5 10 14 19 67 230 297 952 4730
2020-07-09 16:00 6.11 148 16100 (2015) 0 (1934) 661 5 10 14 19 67 230 297 952 4730
2020-07-09 15:30 6.12 150 16100 (2015) 0 (1934) 661 5 10 14 19 67 230 297 952 4730
2020-07-09 15:00 6.12 150 16100 (2015) 0 (1934) 661 5 10 14 19 67 230 297 952 4730
2020-07-09 14:30 6.13 153 16100 (2015) 0 (1934) 661 5 10 14 19 67 230 297 952 4730
2020-07-09 14:00 6.13 153 16100 (2015) 0 (1934) 661 5 10 14 19 67 230 297 952 4730
2020-07-09 13:30 153 16100 (2015) 0 (1934) 661 5 10 14 19 67 230 297 952 4730
2020-07-09 13:00 6.13 153 16100 (2015) 0 (1934) 661 5 10 14 19 67 230 297 952 4730
2020-07-09 12:30 6.13 153 16100 (2015) 0 (1934) 661 5 10 14 19 67 230 297 952 4730
2020-07-09 12:00 6.13 153 16100 (2015) 0 (1934) 661 5 10 14 19 67 230 297 952 4730
2020-07-09 11:30 6.14 155 16100 (2015) 0 (1934) 661 5 10 14 19 67 230 297 952 4730
2020-07-09 11:00 6.14 155 16100 (2015) 0 (1934) 661 5 10 14 19 67 230 297 952 4730
2020-07-09 10:30 6.14 155 16100 (2015) 0 (1934) 661 5 10 14 19 67 230 297 952 4730
2020-07-09 10:00 6.14 155 16100 (2015) 0 (1934) 661 5 10 14 19 67 230 297 952 4730
2020-07-09 09:30 6.14 155 16100 (2015) 0 (1934) 661 5 10 14 19 67 230 297 952 4730
2020-07-09 09:00 6.15 158 16100 (2015) 0 (1934) 661 5 10 14 19 67 230 297 952 4730
2020-07-09 08:30 6.15 158 16100 (2015) 0 (1934) 661 5 10 14 19 67 230 297 952 4730
2020-07-09 08:00 158 16100 (2015) 0 (1934) 661 5 10 14 19 67 230 297 952 4730
2020-07-09 07:30 6.16 160 16100 (2015) 0 (1934) 661 5 10 14 19 67 230 297 952 4730
2020-07-09 07:00 6.16 160 16100 (2015) 0 (1934) 661 5 10 14 19 67 230 297 952 4730
2020-07-09 06:30 6.16 160 16100 (2015) 0 (1934) 661 5 10 14 19 67 230 297 952 4730
2020-07-09 06:00 6.17 163 16100 (2015) 0 (1934) 661 5 10 14 19 67 230 297 952 4730
2020-07-09 05:30 6.17 163 16100 (2015) 0 (1934) 661 5 10 14 19 67 230 297 952 4730
2020-07-09 05:00 6.17 163 16100 (2015) 0 (1934) 661 5 10 14 19 67 230 297 952 4730
2020-07-09 04:30 6.18 166 16100 (2015) 0 (1934) 661 5 10 14 19 67 230 297 952 4730
2020-07-09 04:00 6.18 166 16100 (2015) 0 (1934) 661 5 10 14 19 67 230 297 952 4730
2020-07-09 03:30 6.18 166 16100 (2015) 0 (1934) 661 5 10 14 19 67 230 297 952 4730
2020-07-09 03:00 6.18 166 16100 (2015) 0 (1934) 661 5 10 14 19 67 230 297 952 4730
2020-07-09 02:30 6.19 168 16100 (2015) 0 (1934) 661 5 10 14 19 67 230 297 952 4730
2020-07-09 02:00 6.19 168 16100 (2015) 0 (1934) 661 5 10 14 19 67 230 297 952 4730
2020-07-09 01:30 6.20 171 16100 (2015) 0 (1934) 661 5 10 14 19 67 230 297 952 4730
2020-07-09 01:00 171 16100 (2015) 0 (1934) 661 5 10 14 19 67 230 297 952 4730
2020-07-09 00:30 6.20 171 16100 (2015) 0 (1934) 661 5 10 14 19 67 230 297 952 4730
2020-07-09 00:00 6.20 171 16100 (2015) 0 (1934) 661 5 10 14 19 67 230 297 952 4730
2020-07-08 23:30 6.21 174 23400 (1993) 1 (1934) 716 5 9 16 19 69 221 335 640 3090
2020-07-08 23:00 6.21 174 23400 (1993) 1 (1934) 716 5 9 16 19 69 221 335 640 3090
2020-07-08 22:30 6.22 176 23400 (1993) 1 (1934) 716 5 9 16 19 69 221 335 640 3090
2020-07-08 22:00 6.22 176 23400 (1993) 1 (1934) 716 5 9 16 19 69 221 335 640 3090
2020-07-08 21:30 6.22 176 23400 (1993) 1 (1934) 716 5 9 16 19 69 221 335 640 3090
2020-07-08 21:00 6.23 179 23400 (1993) 1 (1934) 716 5 9 16 19 69 221 335 640 3090
2020-07-08 20:30 6.23 179 23400 (1993) 1 (1934) 716 5 9 16 19 69 221 335 640 3090
2020-07-08 20:00 6.24 182 23400 (1993) 1 (1934) 716 5 9 16 19 69 221 335 640 3090
2020-07-08 19:30 6.24 182 23400 (1993) 1 (1934) 716 5 9 16 19 69 221 335 640 3090
2020-07-08 19:00 6.24 182 23400 (1993) 1 (1934) 716 5 9 16 19 69 221 335 640 3090
2020-07-08 18:30 6.25 185 23400 (1993) 1 (1934) 716 5 9 16 19 69 221 335 640 3090
2020-07-08 18:00 6.25 185 23400 (1993) 1 (1934) 716 5 9 16 19 69 221 335 640 3090
2020-07-08 17:30 6.25 185 23400 (1993) 1 (1934) 716 5 9 16 19 69 221 335 640 3090
2020-07-08 17:00 6.26 188 23400 (1993) 1 (1934) 716 5 9 16 19 69 221 335 640 3090
2020-07-08 16:30 6.26 188 23400 (1993) 1 (1934) 716 5 9 16 19 69 221 335 640 3090
2020-07-08 16:00 6.27 191 23400 (1993) 1 (1934) 716 5 9 16 19 69 221 335 640 3090
2020-07-08 15:30 6.25 185 23400 (1993) 1 (1934) 716 5 9 16 19 69 221 335 640 3090
2020-07-08 15:00 6.26 188 23400 (1993) 1 (1934) 716 5 9 16 19 69 221 335 640 3090
2020-07-08 14:30 6.27 191 23400 (1993) 1 (1934) 716 5 9 16 19 69 221 335 640 3090
2020-07-08 14:00 6.28 194 23400 (1993) 1 (1934) 716 5 9 16 19 69 221 335 640 3090
2020-07-08 13:30 6.28 194 23400 (1993) 1 (1934) 716 5 9 16 19 69 221 335 640 3090
2020-07-08 13:00 6.28 194 23400 (1993) 1 (1934) 716 5 9 16 19 69 221 335 640 3090
2020-07-08 12:30 6.28 194 23400 (1993) 1 (1934) 716 5 9 16 19 69 221 335 640 3090
2020-07-08 12:00 6.28 194 23400 (1993) 1 (1934) 716 5 9 16 19 69 221 335 640 3090
2020-07-08 11:30 6.28 194 23400 (1993) 1 (1934) 716 5 9 16 19 69 221 335 640 3090
2020-07-08 11:00 6.28 194 23400 (1993) 1 (1934) 716 5 9 16 19 69 221 335 640 3090
2020-07-08 10:30 6.28 194 23400 (1993) 1 (1934) 716 5 9 16 19 69 221 335 640 3090
2020-07-08 10:00 6.28 194 23400 (1993) 1 (1934) 716 5 9 16 19 69 221 335 640 3090
2020-07-08 09:30 6.29 197 23400 (1993) 1 (1934) 716 5 9 16 19 69 221 335 640 3090
2020-07-08 09:00 6.29 197 23400 (1993) 1 (1934) 716 5 9 16 19 69 221 335 640 3090
2020-07-08 08:30 6.29 197 23400 (1993) 1 (1934) 716 5 9 16 19 69 221 335 640 3090
2020-07-08 08:00 6.30 200 23400 (1993) 1 (1934) 716 5 9 16 19 69 221 335 640 3090
2020-07-08 07:30 6.31 203 23400 (1993) 1 (1934) 716 5 9 16 19 69 221 335 640 3090
2020-07-08 07:00 6.31 203 23400 (1993) 1 (1934) 716 5 9 16 19 69 221 335 640 3090
2020-07-08 06:30 6.32 206 23400 (1993) 1 (1934) 716 5 9 16 19 69 221 335 640 3090
2020-07-08 06:00 6.32 206 23400 (1993) 1 (1934) 716 5 9 16 19 69 221 335 640 3090
2020-07-08 05:30 6.33 209 23400 (1993) 1 (1934) 716 5 9 16 19 69 221 335 640 3090
2020-07-08 05:00 6.33 209 23400 (1993) 1 (1934) 716 5 9 16 19 69 221 335 640 3090
2020-07-08 04:30 6.33 209 23400 (1993) 1 (1934) 716 5 9 16 19 69 221 335 640 3090
2020-07-08 04:00 6.33 209 23400 (1993) 1 (1934) 716 5 9 16 19 69 221 335 640 3090
2020-07-08 03:30 6.34 212 23400 (1993) 1 (1934) 716 5 9 16 19 69 221 335 640 3090
2020-07-08 03:00 6.34 212 23400 (1993) 1 (1934) 716 5 9 16 19 69 221 335 640 3090
2020-07-08 02:30 6.35 215 23400 (1993) 1 (1934) 716 5 9 16 19 69 221 335 640 3090
2020-07-08 02:00 6.35 215 23400 (1993) 1 (1934) 716 5 9 16 19 69 221 335 640 3090
2020-07-08 01:30 6.36 218 23400 (1993) 1 (1934) 716 5 9 16 19 69 221 335 640 3090
2020-07-08 01:00 6.36 218 23400 (1993) 1 (1934) 716 5 9 16 19 69 221 335 640 3090
2020-07-08 00:30 6.37 222 23400 (1993) 1 (1934) 716 5 9 16 19 69 221 335 640 3090
2020-07-08 00:00 6.37 222 23400 (1993) 1 (1934) 716 5 9 16 19 69 221 335 640 3090
2020-07-07 23:30 6.38 225 9450 (1969) 1 (1936) 614 5 10 17 22 81 293 533 1130 5630
2020-07-07 23:00 6.38 225 9450 (1969) 1 (1936) 614 5 10 17 22 81 293 533 1130 5630
2020-07-07 22:30 6.39 228 9450 (1969) 1 (1936) 614 5 10 17 22 81 293 533 1130 5630
2020-07-07 22:00 6.39 228 9450 (1969) 1 (1936) 614 5 10 17 22 81 293 533 1130 5630
2020-07-07 21:30 6.40 232 9450 (1969) 1 (1936) 614 5 10 17 22 81 293 533 1130 5630
2020-07-07 21:00 6.40 232 9450 (1969) 1 (1936) 614 5 10 17 22 81 293 533 1130 5630
2020-07-07 20:30 235 9450 (1969) 1 (1936) 614 5 10 17 22 81 293 533 1130 5630
2020-07-07 20:00 6.41 235 9450 (1969) 1 (1936) 614 5 10 17 22 81 293 533 1130 5630
2020-07-07 19:30 6.42 238 9450 (1969) 1 (1936) 614 5 10 17 22 81 293 533 1130 5630
2020-07-07 19:00 6.43 242 9450 (1969) 1 (1936) 614 5 10 17 22 81 293 533 1130 5630
2020-07-07 18:30 6.43 242 9450 (1969) 1 (1936) 614 5 10 17 22 81 293 533 1130 5630
2020-07-07 18:00 6.44 245 9450 (1969) 1 (1936) 614 5 10 17 22 81 293 533 1130 5630
2020-07-07 17:30 6.44 245 9450 (1969) 1 (1936) 614 5 10 17 22 81 293 533 1130 5630
2020-07-07 17:00 6.45 249 9450 (1969) 1 (1936) 614 5 10 17 22 81 293 533 1130 5630
2020-07-07 16:30 6.46 252 9450 (1969) 1 (1936) 614 5 10 17 22 81 293 533 1130 5630
2020-07-07 16:00 6.46 252 9450 (1969) 1 (1936) 614 5 10 17 22 81 293 533 1130 5630
2020-07-07 15:30 6.46 252 9450 (1969) 1 (1936) 614 5 10 17 22 81 293 533 1130 5630
2020-07-07 15:00 6.47 256 9450 (1969) 1 (1936) 614 5 10 17 22 81 293 533 1130 5630
2020-07-07 14:30 6.48 260 9450 (1969) 1 (1936) 614 5 10 17 22 81 293 533 1130 5630
2020-07-07 14:00 6.48 260 9450 (1969) 1 (1936) 614 5 10 17 22 81 293 533 1130 5630
2020-07-07 13:30 6.48 260 9450 (1969) 1 (1936) 614 5 10 17 22 81 293 533 1130 5630
2020-07-07 13:00 6.48 260 9450 (1969) 1 (1936) 614 5 10 17 22 81 293 533 1130 5630
2020-07-07 12:30 6.48 260 9450 (1969) 1 (1936) 614 5 10 17 22 81 293 533 1130 5630
2020-07-07 12:00 6.49 263 9450 (1969) 1 (1936) 614 5 10 17 22 81 293 533 1130 5630
2020-07-07 11:30 6.49 263 9450 (1969) 1 (1936) 614 5 10 17 22 81 293 533 1130 5630
2020-07-07 11:00 6.49 263 9450 (1969) 1 (1936) 614 5 10 17 22 81 293 533 1130 5630
2020-07-07 10:30 6.49 263 9450 (1969) 1 (1936) 614 5 10 17 22 81 293 533 1130 5630
2020-07-07 10:00 6.49 263 9450 (1969) 1 (1936) 614 5 10 17 22 81 293 533 1130 5630
2020-07-07 09:30 6.49 263 9450 (1969) 1 (1936) 614 5 10 17 22 81 293 533 1130 5630
2020-07-07 09:00 6.50 267 9450 (1969) 1 (1936) 614 5 10 17 22 81 293 533 1130 5630
2020-07-07 08:30 6.51 270 9450 (1969) 1 (1936) 614 5 10 17 22 81 293 533 1130 5630
2020-07-07 08:00 6.52 273 9450 (1969) 1 (1936) 614 5 10 17 22 81 293 533 1130 5630
2020-07-07 07:30 6.53 276 9450 (1969) 1 (1936) 614 5 10 17 22 81 293 533 1130 5630
2020-07-07 07:00 6.53 276 9450 (1969) 1 (1936) 614 5 10 17 22 81 293 533 1130 5630
2020-07-07 06:30 6.54 279 9450 (1969) 1 (1936) 614 5 10 17 22 81 293 533 1130 5630
2020-07-07 06:00 6.54 279 9450 (1969) 1 (1936) 614 5 10 17 22 81 293 533 1130 5630
2020-07-07 05:30 6.54 279 9450 (1969) 1 (1936) 614 5 10 17 22 81 293 533 1130 5630
2020-07-07 05:00 6.55 282 9450 (1969) 1 (1936) 614 5 10 17 22 81 293 533 1130 5630
2020-07-07 04:30 6.56 285 9450 (1969) 1 (1936) 614 5 10 17 22 81 293 533 1130 5630
2020-07-07 04:00 6.56 285 9450 (1969) 1 (1936) 614 5 10 17 22 81 293 533 1130 5630
2020-07-07 03:30 6.57 288 9450 (1969) 1 (1936) 614 5 10 17 22 81 293 533 1130 5630
2020-07-07 03:00 6.57 288 9450 (1969) 1 (1936) 614 5 10 17 22 81 293 533 1130 5630
2020-07-07 02:30 6.58 291 9450 (1969) 1 (1936) 614 5 10 17 22 81 293 533 1130 5630
2020-07-07 02:00 6.59 294 9450 (1969) 1 (1936) 614 5 10 17 22 81 293 533 1130 5630
2020-07-07 01:30 6.60 297 9450 (1969) 1 (1936) 614 5 10 17 22 81 293 533 1130 5630
2020-07-07 01:00 6.60 297 9450 (1969) 1 (1936) 614 5 10 17 22 81 293 533 1130 5630
2020-07-07 00:30 6.61 301 9450 (1969) 1 (1936) 614 5 10 17 22 81 293 533 1130 5630
2020-07-07 00:00 6.62 304 9450 (1969) 1 (1936) 614 5 10 17 22 81 293 533 1130 5630
2020-07-06 23:30 6.62 304 5740 (1998) 1 (1934) 450 5 11 19 25 77 329 461 1620 2370
2020-07-06 23:00 6.63 307 5740 (1998) 1 (1934) 450 5 11 19 25 77 329 461 1620 2370
2020-07-06 22:30 6.64 310 5740 (1998) 1 (1934) 450 5 11 19 25 77 329 461 1620 2370
2020-07-06 22:00 6.65 313 5740 (1998) 1 (1934) 450 5 11 19 25 77 329 461 1620 2370
2020-07-06 21:30 6.65 313 5740 (1998) 1 (1934) 450 5 11 19 25 77 329 461 1620 2370
2020-07-06 21:00 6.66 317 5740 (1998) 1 (1934) 450 5 11 19 25 77 329 461 1620 2370
2020-07-06 20:30 6.67 320 5740 (1998) 1 (1934) 450 5 11 19 25 77 329 461 1620 2370
2020-07-06 20:00 6.68 323 5740 (1998) 1 (1934) 450 5 11 19 25 77 329 461 1620 2370
2020-07-06 19:30 6.69 327 5740 (1998) 1 (1934) 450 5 11 19 25 77 329 461 1620 2370
2020-07-06 19:00 6.70 330 5740 (1998) 1 (1934) 450 5 11 19 25 77 329 461 1620 2370
2020-07-06 18:30 6.71 333 5740 (1998) 1 (1934) 450 5 11 19 25 77 329 461 1620 2370
2020-07-06 18:00 6.72 337 5740 (1998) 1 (1934) 450 5 11 19 25 77 329 461 1620 2370
2020-07-06 17:30 6.73 340 5740 (1998) 1 (1934) 450 5 11 19 25 77 329 461 1620 2370
2020-07-06 17:00 6.74 344 5740 (1998) 1 (1934) 450 5 11 19 25 77 329 461 1620 2370
2020-07-06 16:30 6.76 351 5740 (1998) 1 (1934) 450 5 11 19 25 77 329 461 1620 2370
2020-07-06 16:00 6.77 354 5740 (1998) 1 (1934) 450 5 11 19 25 77 329 461 1620 2370
2020-07-06 15:30 6.78 358 5740 (1998) 1 (1934) 450 5 11 19 25 77 329 461 1620 2370
2020-07-06 15:00 6.78 358 5740 (1998) 1 (1934) 450 5 11 19 25 77 329 461 1620 2370
2020-07-06 14:30 6.70 330 5740 (1998) 1 (1934) 450 5 11 19 25 77 329 461 1620 2370
2020-07-06 14:00 6.79 361 5740 (1998) 1 (1934) 450 5 11 19 25 77 329 461 1620 2370
2020-07-06 13:30 6.79 361 5740 (1998) 1 (1934) 450 5 11 19 25 77 329 461 1620 2370
2020-07-06 13:00 6.81 368 5740 (1998) 1 (1934) 450 5 11 19 25 77 329 461 1620 2370
2020-07-06 12:30 6.81 368 5740 (1998) 1 (1934) 450 5 11 19 25 77 329 461 1620 2370
2020-07-06 12:00 6.82 372 5740 (1998) 1 (1934) 450 5 11 19 25 77 329 461 1620 2370
2020-07-06 11:30 6.83 376 5740 (1998) 1 (1934) 450 5 11 19 25 77 329 461 1620 2370
2020-07-06 11:00 6.84 379 5740 (1998) 1 (1934) 450 5 11 19 25 77 329 461 1620 2370
2020-07-06 10:30 6.84 379 5740 (1998) 1 (1934) 450 5 11 19 25 77 329 461 1620 2370
2020-07-06 10:00 6.85 383 5740 (1998) 1 (1934) 450 5 11 19 25 77 329 461 1620 2370
2020-07-06 09:30 6.86 387 5740 (1998) 1 (1934) 450 5 11 19 25 77 329 461 1620 2370
2020-07-06 09:00 6.87 5740 (1998) 1 (1934) 450 5 11 19 25 77 329 461 1620 2370
2020-07-06 08:30 6.89 398 5740 (1998) 1 (1934) 450 5 11 19 25 77 329 461 1620 2370
2020-07-06 08:00 6.90 402 5740 (1998) 1 (1934) 450 5 11 19 25 77 329 461 1620 2370
2020-07-06 07:30 6.91 406 5740 (1998) 1 (1934) 450 5 11 19 25 77 329 461 1620 2370
2020-07-06 07:00 6.92 410 5740 (1998) 1 (1934) 450 5 11 19 25 77 329 461 1620 2370
2020-07-06 06:30 6.93 414 5740 (1998) 1 (1934) 450 5 11 19 25 77 329 461 1620 2370
2020-07-06 06:00 6.95 5740 (1998) 1 (1934) 450 5 11 19 25 77 329 461 1620 2370
2020-07-06 05:30 6.95 422 5740 (1998) 1 (1934) 450 5 11 19 25 77 329 461 1620 2370
2020-07-06 05:00 6.97 5740 (1998) 1 (1934) 450 5 11 19 25 77 329 461 1620 2370
2020-07-06 04:30 6.98 433 5740 (1998) 1 (1934) 450 5 11 19 25 77 329 461 1620 2370
2020-07-06 04:00 6.99 438 5740 (1998) 1 (1934) 450 5 11 19 25 77 329 461 1620 2370
2020-07-06 03:30 7.01 446 5740 (1998) 1 (1934) 450 5 11 19 25 77 329 461 1620 2370
2020-07-06 03:00 7.02 450 5740 (1998) 1 (1934) 450 5 11 19 25 77 329 461 1620 2370
2020-07-06 02:30 7.03 454 5740 (1998) 1 (1934) 450 5 11 19 25 77 329 461 1620 2370
2020-07-06 02:00 7.04 458 5740 (1998) 1 (1934) 450 5 11 19 25 77 329 461 1620 2370
2020-07-06 01:30 7.06 467 5740 (1998) 1 (1934) 450 5 11 19 25 77 329 461 1620 2370
2020-07-06 01:00 7.07 471 5740 (1998) 1 (1934) 450 5 11 19 25 77 329 461 1620 2370
2020-07-06 00:30 7.09 479 5740 (1998) 1 (1934) 450 5 11 19 25 77 329 461 1620 2370
2020-07-06 00:00 7.10 484 5740 (1998) 1 (1934) 450 5 11 19 25 77 329 461 1620 2370

A total of 372 rows are displayed for years 1922 through 2019.